createdAt,value
2022-12-15T00:00:17.656Z,9.00
2022-12-15T00:03:03.944Z,9.10
2022-12-15T00:05:50.463Z,7.80
2022-12-15T00:08:36.612Z,7.97
2022-12-15T00:11:23.410Z,6.70
2022-12-15T00:14:09.768Z,5.90
2022-12-15T00:16:55.976Z,6.57
2022-12-15T00:19:42.323Z,6.83
2022-12-15T00:22:28.658Z,6.60
2022-12-15T00:25:15.077Z,6.43
2022-12-15T00:28:01.395Z,6.47
2022-12-15T00:30:50.006Z,6.70
2022-12-15T00:33:36.675Z,5.40
2022-12-15T00:36:23.185Z,6.27
2022-12-15T00:38:51.069Z,5.60
2022-12-15T00:41:19.113Z,5.97
2022-12-15T00:43:46.936Z,5.40
2022-12-15T00:46:33.755Z,6.20
2022-12-15T00:49:01.640Z,6.00
2022-12-15T00:51:47.850Z,5.53
2022-12-15T00:54:34.371Z,6.23
2022-12-15T00:57:20.726Z,5.27
2022-12-15T01:00:07.209Z,5.67
2022-12-15T01:02:54.128Z,6.50
2022-12-15T01:05:40.572Z,6.20
2022-12-15T01:08:26.795Z,5.47
2022-12-15T01:11:13.356Z,5.80
2022-12-15T01:13:59.903Z,5.50
2022-12-15T01:16:46.251Z,5.70
2022-12-15T01:19:32.673Z,5.03
2022-12-15T01:22:00.463Z,5.30
2022-12-15T01:24:28.208Z,5.43
2022-12-15T01:26:55.943Z,5.67
2022-12-15T01:29:23.703Z,5.73
2022-12-15T01:31:51.451Z,5.30
2022-12-15T01:34:21.206Z,5.60
2022-12-15T01:36:48.908Z,5.23
2022-12-15T01:39:17.258Z,5.23
2022-12-15T01:41:45.001Z,5.60
2022-12-15T01:44:20.917Z,5.70
2022-12-15T01:46:50.238Z,5.03
2022-12-15T01:49:22.050Z,5.10
2022-12-15T01:51:51.003Z,4.87
2022-12-15T01:54:24.577Z,4.40
2022-12-15T01:56:55.445Z,5.07
2022-12-15T01:59:32.472Z,5.10
2022-12-15T02:02:00.356Z,4.53
2022-12-15T02:04:28.165Z,4.00
2022-12-15T02:06:55.939Z,4.70
2022-12-15T02:09:23.733Z,4.53
2022-12-15T02:12:10.854Z,5.90
2022-12-15T02:14:54.519Z,4.47
2022-12-15T02:17:30.512Z,4.90
2022-12-15T02:20:31.280Z,5.00
2022-12-15T02:23:17.595Z,5.13
2022-12-15T02:25:57.232Z,5.27
2022-12-15T02:28:46.567Z,5.30
2022-12-15T02:31:49.786Z,4.87
2022-12-15T02:34:24.695Z,4.70
2022-12-15T02:36:56.515Z,4.60
2022-12-15T02:39:24.664Z,5.13
2022-12-15T02:41:54.078Z,5.07
2022-12-15T02:44:28.179Z,5.17
2022-12-15T02:47:07.050Z,5.40
2022-12-15T02:49:49.810Z,5.20
2022-12-15T02:52:36.636Z,5.63
2022-12-15T02:55:13.254Z,5.20
2022-12-15T02:57:57.191Z,6.10
2022-12-15T03:00:24.956Z,6.50
2022-12-15T03:02:54.006Z,5.87
2022-12-15T03:05:22.101Z,5.87
2022-12-15T03:07:54.208Z,5.33
2022-12-15T03:10:24.530Z,5.43
2022-12-15T03:12:52.575Z,5.47
2022-12-15T03:15:20.506Z,5.40
2022-12-15T03:17:48.248Z,5.90
2022-12-15T03:20:16.000Z,5.03
2022-12-15T03:22:43.684Z,5.67
2022-12-15T03:25:11.531Z,6.03
2022-12-15T03:27:39.267Z,5.93
2022-12-15T03:30:07.709Z,5.20
2022-12-15T03:32:35.416Z,6.43
2022-12-15T03:35:03.376Z,5.00
2022-12-15T03:37:31.046Z,4.83
2022-12-15T03:39:58.818Z,4.90
2022-12-15T03:42:45.126Z,4.27
2022-12-15T03:45:12.810Z,4.30
2022-12-15T03:47:43.907Z,4.43
2022-12-15T03:50:12.069Z,3.67
2022-12-15T03:52:39.788Z,3.73
2022-12-15T03:55:08.782Z,3.73
2022-12-15T03:57:36.608Z,3.37
2022-12-15T04:00:05.970Z,3.83
2022-12-15T04:02:33.871Z,2.83
2022-12-15T04:05:01.827Z,3.20
2022-12-15T04:07:29.565Z,3.43
2022-12-15T04:09:57.317Z,4.17
2022-12-15T04:12:25.093Z,4.83
2022-12-15T04:14:52.867Z,2.60
2022-12-15T04:17:20.672Z,3.27
2022-12-15T04:20:06.959Z,3.00
2022-12-15T04:22:34.710Z,3.30
2022-12-15T04:25:21.202Z,3.10
2022-12-15T04:28:07.621Z,3.00
2022-12-15T04:30:53.959Z,2.90
2022-12-15T04:33:40.250Z,3.03
2022-12-15T04:36:28.272Z,2.80
2022-12-15T04:39:14.457Z,3.20
2022-12-15T04:42:00.631Z,2.70
2022-12-15T04:44:50.141Z,3.70
2022-12-15T04:47:36.916Z,3.10
2022-12-15T04:50:23.400Z,2.77
2022-12-15T04:53:09.789Z,3.30
2022-12-15T04:55:56.992Z,3.00
2022-12-15T04:58:43.557Z,2.70
2022-12-15T05:01:30.099Z,2.90
2022-12-15T05:04:16.730Z,2.87
2022-12-15T05:07:03.279Z,3.03
2022-12-15T05:09:49.550Z,3.47
2022-12-15T05:12:35.993Z,2.90
2022-12-15T05:15:22.617Z,2.60
2022-12-15T05:18:08.976Z,3.30
2022-12-15T05:20:55.233Z,2.93
2022-12-15T05:23:41.793Z,2.67
2022-12-15T05:26:28.407Z,3.07
2022-12-15T05:29:15.007Z,2.80
2022-12-15T05:31:53.235Z,3.33
2022-12-15T05:34:24.863Z,3.10
2022-12-15T05:36:52.812Z,2.83
2022-12-15T05:39:20.825Z,2.50
2022-12-15T05:41:48.739Z,1.97
2022-12-15T05:44:16.579Z,1.77
2022-12-15T05:46:44.557Z,1.90
2022-12-15T05:49:14.749Z,1.90
2022-12-15T05:51:43.202Z,1.70
2022-12-15T05:54:11.834Z,1.67
2022-12-15T05:56:39.835Z,1.40
2022-12-15T05:59:07.578Z,1.80
2022-12-15T06:01:36.617Z,1.53
2022-12-15T06:04:04.394Z,1.90
2022-12-15T06:06:32.226Z,2.30
2022-12-15T06:09:00.403Z,1.43
2022-12-15T06:11:28.211Z,1.50
2022-12-15T06:13:56.364Z,1.80
2022-12-15T06:16:24.884Z,2.10
2022-12-15T06:18:57.613Z,2.00
2022-12-15T06:21:26.998Z,2.07
2022-12-15T06:23:54.894Z,2.07
2022-12-15T06:26:23.700Z,2.40
2022-12-15T06:28:51.513Z,2.20
2022-12-15T06:31:20.799Z,2.00
2022-12-15T06:33:48.580Z,2.00
2022-12-15T06:36:16.700Z,2.60
2022-12-15T06:38:45.236Z,2.03
2022-12-15T06:41:19.285Z,1.90
2022-12-15T06:43:54.117Z,1.90
2022-12-15T06:46:22.034Z,2.30
2022-12-15T06:48:49.821Z,2.47
2022-12-15T06:51:17.879Z,2.43
2022-12-15T06:53:53.924Z,2.47
2022-12-15T06:56:34.398Z,2.17
2022-12-15T06:59:02.896Z,2.70
2022-12-15T07:01:31.190Z,2.63
2022-12-15T07:04:01.126Z,3.10
2022-12-15T07:06:29.438Z,2.50
2022-12-15T07:09:00.146Z,2.50
2022-12-15T07:11:27.871Z,2.40
2022-12-15T07:13:55.746Z,2.60
2022-12-15T07:16:23.908Z,2.20
2022-12-15T07:18:51.673Z,2.33
2022-12-15T07:21:19.364Z,2.47
2022-12-15T07:23:54.625Z,2.53
2022-12-15T07:26:23.511Z,2.13
2022-12-15T07:28:51.546Z,2.40
2022-12-15T07:31:19.373Z,2.30
2022-12-15T07:33:49.359Z,3.30
2022-12-15T07:36:17.239Z,3.67
2022-12-15T07:38:50.464Z,3.60
2022-12-15T07:41:19.229Z,3.50
2022-12-15T07:43:48.247Z,3.07
2022-12-15T07:46:16.531Z,3.60
2022-12-15T07:48:44.437Z,4.10
2022-12-15T07:51:21.221Z,3.93
2022-12-15T07:53:51.206Z,4.20
2022-12-15T07:56:19.475Z,3.20
2022-12-15T07:58:47.485Z,3.60
2022-12-15T08:01:15.851Z,3.97
2022-12-15T08:03:43.894Z,4.27
2022-12-15T08:06:13.194Z,3.30
2022-12-15T08:08:41.118Z,3.60
2022-12-15T08:11:09.818Z,3.70
2022-12-15T08:16:25.843Z,3.63
2022-12-15T08:18:53.935Z,3.77
2022-12-15T08:21:21.703Z,4.20
2022-12-15T08:23:49.401Z,4.07
2022-12-15T08:26:18.084Z,4.00
2022-12-15T08:28:46.043Z,3.73
2022-12-15T08:31:17.363Z,8.63
2022-12-15T08:33:45.827Z,6.43
2022-12-15T08:36:14.820Z,4.57
2022-12-15T08:38:42.980Z,4.47
2022-12-15T08:41:12.579Z,4.47
2022-12-15T08:43:47.474Z,4.27
2022-12-15T08:46:17.163Z,3.87
2022-12-15T08:48:45.181Z,4.13
2022-12-15T08:51:13.216Z,4.37
2022-12-15T08:53:40.885Z,4.13
2022-12-15T08:56:16.961Z,4.50
2022-12-15T08:58:45.299Z,3.70
2022-12-15T09:01:24.393Z,5.00
2022-12-15T09:03:52.933Z,4.50
2022-12-15T09:06:22.598Z,4.60
2022-12-15T09:08:50.777Z,5.03
2022-12-15T09:11:18.791Z,4.80
2022-12-15T09:13:46.567Z,4.33
2022-12-15T09:16:16.318Z,5.00
2022-12-15T09:18:48.095Z,4.43
2022-12-15T09:21:16.319Z,4.70
2022-12-15T09:23:44.117Z,4.47
2022-12-15T09:26:13.540Z,5.00
2022-12-15T09:28:41.465Z,21.87
2022-12-15T09:31:23.277Z,6.90
2022-12-15T09:33:52.756Z,5.23
2022-12-15T09:36:20.794Z,4.90
2022-12-15T09:38:48.584Z,4.80
2022-12-15T09:41:16.192Z,4.83
2022-12-15T09:44:02.824Z,4.53
2022-12-15T09:47:08.154Z,4.43
2022-12-15T09:49:50.923Z,4.77
2022-12-15T09:52:29.185Z,4.80
2022-12-15T09:54:59.042Z,4.43
2022-12-15T09:57:44.189Z,4.83
2022-12-15T10:00:34.035Z,4.50
2022-12-15T10:03:20.916Z,4.53
2022-12-15T10:06:17.063Z,5.10
2022-12-15T10:08:57.172Z,5.33
2022-12-15T10:11:44.132Z,5.40
2022-12-15T10:14:32.053Z,5.20
2022-12-15T10:17:11.905Z,5.57
2022-12-15T10:19:42.604Z,5.67
2022-12-15T10:22:23.904Z,5.90
2022-12-15T10:27:59.883Z,10.97
2022-12-15T10:30:27.761Z,7.20
2022-12-15T10:33:27.208Z,7.23
2022-12-15T10:35:55.299Z,6.87
2022-12-15T10:38:26.596Z,6.43
2022-12-15T10:40:59.851Z,6.83
2022-12-15T10:43:38.567Z,6.80
2022-12-15T10:46:17.165Z,7.40
2022-12-15T10:48:49.547Z,7.13
2022-12-15T10:51:31.039Z,7.50
2022-12-15T10:54:01.810Z,7.33
2022-12-15T10:56:33.653Z,6.90
2022-12-15T10:59:22.299Z,7.17
2022-12-15T11:04:38.075Z,6.77
2022-12-15T11:07:13.162Z,7.47
2022-12-15T11:09:41.028Z,7.50
2022-12-15T11:12:40.755Z,7.20
2022-12-15T11:15:23.777Z,7.60
2022-12-15T11:17:59.364Z,8.10
2022-12-15T11:20:57.517Z,110.50
2022-12-15T11:23:40.168Z,17.40
2022-12-15T11:26:38.990Z,9.77
2022-12-15T11:29:25.025Z,9.50
2022-12-15T11:31:53.656Z,8.23
2022-12-15T11:34:26.335Z,8.53
2022-12-15T11:37:21.220Z,8.00
2022-12-15T11:39:51.958Z,8.43
2022-12-15T11:42:53.635Z,8.60
2022-12-15T11:45:51.169Z,7.60
2022-12-15T11:48:20.607Z,8.20
2022-12-15T11:50:51.101Z,8.07
2022-12-15T11:53:47.427Z,8.63
2022-12-15T11:56:29.103Z,7.63
2022-12-15T11:59:15.130Z,8.27
2022-12-15T12:02:26.987Z,9.07
2022-12-15T12:05:39.801Z,8.13
2022-12-15T12:08:10.319Z,8.37
2022-12-15T12:11:13.534Z,8.60
2022-12-15T12:13:59.611Z,21.90
2022-12-15T12:16:36.343Z,9.73
2022-12-15T12:19:12.119Z,9.13
2022-12-15T12:21:42.230Z,7.97
2022-12-15T12:24:18.002Z,10.00
2022-12-15T12:26:51.148Z,9.90
2022-12-15T12:29:35.791Z,9.60
2022-12-15T12:32:18.582Z,8.83
2022-12-15T12:35:30.488Z,9.20
2022-12-15T12:37:50.204Z,9.87
2022-12-15T12:40:20.153Z,9.60
2022-12-15T12:43:00.438Z,9.93
2022-12-15T12:45:35.365Z,9.83
2022-12-15T12:48:08.168Z,10.27
2022-12-15T12:50:36.020Z,10.17
2022-12-15T12:53:04.203Z,11.07
2022-12-15T12:55:42.369Z,11.20
2022-12-15T12:58:39.555Z,11.57
2022-12-15T13:01:20.499Z,11.87
2022-12-15T13:03:49.051Z,11.93
2022-12-15T13:06:22.466Z,12.07
2022-12-15T13:08:53.910Z,11.40
2022-12-15T13:11:49.784Z,28.60
2022-12-15T13:14:37.120Z,13.90
2022-12-15T13:17:28.166Z,12.10
2022-12-15T13:20:01.922Z,12.87
2022-12-15T13:22:34.097Z,12.23
2022-12-15T13:25:01.837Z,12.20
2022-12-15T13:27:39.402Z,12.63
2022-12-15T13:30:07.053Z,13.07
2022-12-15T13:32:34.884Z,13.20
2022-12-15T13:35:14.075Z,14.30
2022-12-15T13:37:57.596Z,13.37
2022-12-15T13:40:36.181Z,14.83
2022-12-15T13:43:06.578Z,15.30
2022-12-15T13:45:54.953Z,15.47
2022-12-15T13:48:37.636Z,14.33
2022-12-15T13:51:27.622Z,15.07
2022-12-15T13:54:23.755Z,15.10
2022-12-15T13:57:11.834Z,15.13
2022-12-15T13:59:53.205Z,14.27
2022-12-15T14:02:32.039Z,16.20
2022-12-15T14:05:24.223Z,14.10
2022-12-15T14:07:55.188Z,14.97
2022-12-15T14:10:50.906Z,15.33
2022-12-15T14:13:27.209Z,15.10
2022-12-15T14:16:04.262Z,15.77
2022-12-15T14:18:36.233Z,19.27
2022-12-15T14:21:07.469Z,16.37
2022-12-15T14:23:52.445Z,14.73
2022-12-15T14:26:32.831Z,15.40
2022-12-15T14:29:06.112Z,17.13
2022-12-15T14:31:34.047Z,15.70
2022-12-15T14:34:10.240Z,16.90
2022-12-15T14:36:38.026Z,15.00
2022-12-15T14:39:07.594Z,16.43
2022-12-15T14:41:40.031Z,16.43
2022-12-15T14:44:36.749Z,15.90
2022-12-15T14:47:08.499Z,15.33
2022-12-15T14:49:43.999Z,16.53
2022-12-15T14:52:30.478Z,15.57
2022-12-15T14:54:59.981Z,14.73
2022-12-15T14:57:40.436Z,15.37
2022-12-15T15:00:31.755Z,14.33
2022-12-15T15:03:04.147Z,7.13
2022-12-15T15:06:13.462Z,15.33
2022-12-15T15:08:48.577Z,14.50
2022-12-15T15:11:26.450Z,14.90
2022-12-15T15:13:58.358Z,16.03
2022-12-15T15:16:26.270Z,15.90
2022-12-15T15:18:55.152Z,24.10
2022-12-15T15:21:27.508Z,17.90
2022-12-15T15:24:05.944Z,15.93
2022-12-15T15:26:33.927Z,16.37
2022-12-15T15:29:01.698Z,16.53
2022-12-15T15:31:41.055Z,15.30
2022-12-15T15:34:09.758Z,16.43
2022-12-15T15:36:40.878Z,15.77
2022-12-15T15:39:21.292Z,15.53
2022-12-15T15:41:49.099Z,15.70
2022-12-15T15:44:16.953Z,15.57
2022-12-15T15:46:53.776Z,15.97
2022-12-15T15:49:22.111Z,16.10
2022-12-15T15:51:49.863Z,15.30
2022-12-15T15:54:23.558Z,16.33
2022-12-15T15:56:51.248Z,17.20
2022-12-15T15:59:22.011Z,17.23
2022-12-15T16:01:57.052Z,16.90
2022-12-15T16:04:25.372Z,17.80
2022-12-15T16:06:53.561Z,17.80
2022-12-15T16:09:21.371Z,18.30
2022-12-15T16:11:49.175Z,19.30
2022-12-15T16:14:17.862Z,19.33
2022-12-15T16:16:45.740Z,19.20
2022-12-15T16:19:13.578Z,18.20
2022-12-15T16:21:41.564Z,18.10
2022-12-15T16:24:11.201Z,20.00
2022-12-15T16:26:40.039Z,20.90
2022-12-15T16:29:15.732Z,24.33
2022-12-15T16:31:46.595Z,20.57
2022-12-15T16:34:15.415Z,19.47
2022-12-15T16:36:43.335Z,19.03
2022-12-15T16:39:26.612Z,18.90
2022-12-15T16:41:55.096Z,18.93
2022-12-15T16:44:23.577Z,18.50
2022-12-15T16:46:52.008Z,20.47
2022-12-15T16:49:19.865Z,18.43
2022-12-15T16:51:49.167Z,19.80
2022-12-15T16:54:22.803Z,19.63
2022-12-15T16:56:50.661Z,19.40
2022-12-15T16:59:35.616Z,20.17
2022-12-15T17:02:30.474Z,19.70
2022-12-15T17:04:58.591Z,18.67
2022-12-15T17:07:27.686Z,18.77
2022-12-15T17:09:55.422Z,19.63
2022-12-15T17:12:23.213Z,18.10
2022-12-15T17:14:50.963Z,18.90
2022-12-15T17:17:21.269Z,18.97
2022-12-15T17:20:28.506Z,19.17
2022-12-15T17:22:38.563Z,18.13
2022-12-15T17:25:06.839Z,18.60
2022-12-15T17:27:34.643Z,19.83
2022-12-15T17:30:02.641Z,18.77
2022-12-15T17:32:30.691Z,18.70
2022-12-15T17:34:58.555Z,17.63
2022-12-15T17:37:30.570Z,20.27
2022-12-15T17:40:03.169Z,19.17
2022-12-15T17:42:30.943Z,18.20
2022-12-15T17:44:58.799Z,19.50
2022-12-15T17:47:26.607Z,18.37
2022-12-15T17:49:54.561Z,17.23
2022-12-15T17:52:30.027Z,18.63
2022-12-15T17:54:57.939Z,18.70
2022-12-15T17:57:25.818Z,41.77
2022-12-15T17:59:53.637Z,19.47
2022-12-15T18:02:21.503Z,18.37
2022-12-15T18:04:49.387Z,19.23
2022-12-15T18:07:21.784Z,17.97
2022-12-15T18:09:50.308Z,18.73
2022-12-15T18:12:23.477Z,18.17
2022-12-15T18:14:51.514Z,18.87
2022-12-15T18:17:19.376Z,16.67
2022-12-15T18:19:47.554Z,17.47
2022-12-15T18:22:23.587Z,18.40
2022-12-15T18:24:52.629Z,17.60
2022-12-15T18:27:27.599Z,18.00
2022-12-15T18:29:55.552Z,17.37
2022-12-15T18:32:27.653Z,17.00
2022-12-15T18:34:55.903Z,17.20
2022-12-15T18:37:24.275Z,17.13
2022-12-15T18:39:52.098Z,17.17
2022-12-15T18:42:21.529Z,17.63
2022-12-15T18:44:51.053Z,17.53
2022-12-15T18:47:19.916Z,17.07
2022-12-15T18:49:47.781Z,17.50
2022-12-15T18:52:23.254Z,18.40
2022-12-15T18:54:52.166Z,17.30
2022-12-15T18:57:31.184Z,18.10
2022-12-15T19:00:10.762Z,17.67
2022-12-15T19:02:38.849Z,18.20
2022-12-15T19:05:07.603Z,18.40
2022-12-15T19:07:35.567Z,17.97
2022-12-15T19:10:03.401Z,18.47
2022-12-15T19:12:31.259Z,17.57
2022-12-15T19:14:59.089Z,17.13
2022-12-15T19:17:45.344Z,17.23
2022-12-15T19:20:36.767Z,17.23
2022-12-15T19:23:04.840Z,17.33
2022-12-15T19:25:32.735Z,17.37
2022-12-15T19:28:00.923Z,17.37
2022-12-15T19:30:30.325Z,18.67
2022-12-15T19:32:58.244Z,17.47
2022-12-15T19:35:28.455Z,16.67
2022-12-15T19:37:58.110Z,17.63
2022-12-15T19:40:31.711Z,17.70
2022-12-15T19:43:00.451Z,18.57
2022-12-15T19:45:30.125Z,17.83
2022-12-15T19:47:58.147Z,17.43
2022-12-15T19:50:37.336Z,17.97
2022-12-15T19:53:08.315Z,17.93
2022-12-15T19:55:36.599Z,18.10
2022-12-15T19:58:29.039Z,17.33
2022-12-15T20:00:58.342Z,17.73
2022-12-15T20:03:26.733Z,16.07
2022-12-15T20:05:55.209Z,19.00
2022-12-15T20:08:25.221Z,15.43
2022-12-15T20:10:53.387Z,17.23
2022-12-15T20:13:21.237Z,17.60
2022-12-15T20:15:49.195Z,16.10
2022-12-15T20:18:17.062Z,16.03
2022-12-15T20:20:46.633Z,15.80
2022-12-15T20:23:20.449Z,15.47
2022-12-15T20:25:48.435Z,15.93
2022-12-15T20:28:24.301Z,13.57
2022-12-15T20:30:52.463Z,15.10
2022-12-15T20:33:20.657Z,14.37
2022-12-15T20:35:49.178Z,24.17
2022-12-15T20:38:29.105Z,18.07
2022-12-15T20:40:56.983Z,14.33
2022-12-15T20:43:25.031Z,14.90
2022-12-15T20:46:03.905Z,13.90
2022-12-15T20:48:31.943Z,14.23
2022-12-15T20:51:04.226Z,13.53
2022-12-15T20:53:34.529Z,13.80
2022-12-15T20:56:02.713Z,12.90
2022-12-15T20:58:33.254Z,12.30
2022-12-15T21:01:01.556Z,12.50
2022-12-15T21:03:31.515Z,13.43
2022-12-15T21:05:59.849Z,12.77
2022-12-15T21:08:29.364Z,12.17
2022-12-15T21:11:12.034Z,12.93
2022-12-15T21:13:39.814Z,12.80
2022-12-15T21:16:08.146Z,12.80
2022-12-15T21:21:33.232Z,12.00
2022-12-15T21:24:01.644Z,12.23
2022-12-15T21:26:29.768Z,11.57
2022-12-15T21:28:59.357Z,11.37
2022-12-15T21:31:27.290Z,11.50
2022-12-15T21:33:55.172Z,10.77
2022-12-15T21:36:22.996Z,11.03
2022-12-15T21:38:52.018Z,11.37
2022-12-15T21:41:21.316Z,11.30
2022-12-15T21:43:49.205Z,10.27
2022-12-15T21:46:17.711Z,22.30
2022-12-15T21:49:04.487Z,12.80
2022-12-15T21:51:39.167Z,12.40
2022-12-15T21:54:07.389Z,11.83
2022-12-15T21:56:35.396Z,12.13
2022-12-15T21:59:03.317Z,11.57
2022-12-15T22:01:31.481Z,11.33
2022-12-15T22:03:59.867Z,11.37
2022-12-15T22:06:29.016Z,12.23
2022-12-15T22:08:59.757Z,11.20
2022-12-15T22:11:28.902Z,12.00
2022-12-15T22:13:58.177Z,12.00
2022-12-15T22:16:26.017Z,11.67
2022-12-15T22:18:56.304Z,11.70
2022-12-15T22:21:24.862Z,11.87
2022-12-15T22:23:52.923Z,10.40
2022-12-15T22:26:30.071Z,10.63
2022-12-15T22:28:58.497Z,10.90
2022-12-15T22:31:26.638Z,10.27
2022-12-15T22:33:59.160Z,10.63
2022-12-15T22:36:27.005Z,11.13
2022-12-15T22:38:55.009Z,11.23
2022-12-15T22:41:23.409Z,12.87
2022-12-15T22:43:55.017Z,11.73
2022-12-15T22:46:24.217Z,10.97
2022-12-15T22:48:52.460Z,11.27
2022-12-15T22:51:22.557Z,16.27
2022-12-15T22:53:50.477Z,13.07
2022-12-15T22:56:26.765Z,12.70
2022-12-15T22:58:57.537Z,11.87
2022-12-15T23:01:29.883Z,11.13
2022-12-15T23:03:57.731Z,10.90
2022-12-15T23:06:26.010Z,12.00
2022-12-15T23:08:55.845Z,10.97
2022-12-15T23:11:39.012Z,10.90
2022-12-15T23:14:17.352Z,10.70
2022-12-15T23:16:46.056Z,10.10
2022-12-15T23:19:24.715Z,11.30
2022-12-15T23:21:52.747Z,10.47
2022-12-15T23:24:20.483Z,10.40
2022-12-15T23:26:48.232Z,9.20
2022-12-15T23:29:16.117Z,9.40
2022-12-15T23:31:44.255Z,9.47
2022-12-15T23:34:12.208Z,9.93
2022-12-15T23:36:39.959Z,11.07
2022-12-15T23:39:07.735Z,9.23
2022-12-15T23:41:36.352Z,9.07
2022-12-15T23:44:04.121Z,9.47
2022-12-15T23:46:32.094Z,9.13
2022-12-15T23:49:00.811Z,9.77
2022-12-15T23:51:28.557Z,9.47
2022-12-15T23:53:56.433Z,9.33
2022-12-15T23:56:25.182Z,8.20
2022-12-15T23:58:57.762Z,9.40
